QND weather

Cenej Airport
Novi Sad, South Bačka, Serbia

Public forecast

Using degrees Celsius for public forecast. Weather courtesy of forecast.io.

Closest aviation weather report (METAR) to Cenej Airport

Closest report is Batajnica Air Base, 32.3 nm (59.9 km) SSE. Retrieved 2019/12/08 02:30 UTC (14 minutes ago):

LYBT 080230Z 15002KT 0200 R12/0300N R30/0200N FZFG NSC M02/M02 Q1021 NOSIG

Closest aviation forecast (TAF) to Cenej Airport

Closest forecast is Batajnica Air Base, 32.3 nm (59.9 km) SSE. Retrieved 2019-12-08 00:00 UTC (3 hours ago):

TAF LYBT 072300Z 0800/0824 05005KT 0200 FG VV001 TX10/0813Z TN01/0806Z BECMG 0809/0812 4000 BR SCT010 SCT020 BECMG 0818/0820 0600 FG